createdAt,value
2018-09-22T00:00:47.357Z,20.30
2018-09-22T00:03:15.956Z,20.20
2018-09-22T00:05:44.513Z,20.10
2018-09-22T00:08:12.985Z,20.00
2018-09-22T00:10:41.500Z,20.00
2018-09-22T00:13:10.169Z,19.90
2018-09-22T00:15:38.784Z,19.90
2018-09-22T00:18:07.328Z,19.90
2018-09-22T00:20:35.841Z,19.90
2018-09-22T00:23:05.347Z,19.90
2018-09-22T00:25:33.893Z,19.80
2018-09-22T00:28:02.405Z,19.80
2018-09-22T00:30:31.150Z,19.80
2018-09-22T00:32:59.821Z,19.60
2018-09-22T00:35:28.344Z,19.30
2018-09-22T00:37:56.845Z,18.90
2018-09-22T00:40:25.413Z,18.60
2018-09-22T00:42:53.947Z,18.30
2018-09-22T00:45:22.483Z,17.70
2018-09-22T00:47:51.081Z,17.60
2018-09-22T00:50:20.535Z,17.50
2018-09-22T00:52:49.081Z,17.30
2018-09-22T00:55:17.573Z,17.20
2018-09-22T00:57:46.136Z,17.10
2018-09-22T01:00:14.582Z,16.90
2018-09-22T01:02:43.097Z,16.90
2018-09-22T01:05:11.597Z,16.90
2018-09-22T01:07:40.145Z,16.80
2018-09-22T01:10:08.697Z,16.40
2018-09-22T01:12:37.216Z,16.30
2018-09-22T01:15:06.745Z,16.10
2018-09-22T01:17:35.273Z,15.90
2018-09-22T01:20:03.855Z,15.80
2018-09-22T01:22:32.350Z,15.60
2018-09-22T01:25:00.802Z,15.40
2018-09-22T01:27:29.314Z,15.50
2018-09-22T01:29:57.762Z,15.40
2018-09-22T01:32:26.285Z,15.40
2018-09-22T01:34:55.730Z,15.40
2018-09-22T01:37:24.285Z,15.40
2018-09-22T01:39:52.854Z,15.20
2018-09-22T01:42:21.484Z,15.10
2018-09-22T01:44:49.977Z,15.10
2018-09-22T01:47:18.707Z,15.10
2018-09-22T01:49:47.137Z,15.00
2018-09-22T01:52:15.631Z,15.00
2018-09-22T01:54:44.140Z,15.00
2018-09-22T01:57:13.650Z,15.00
2018-09-22T01:59:42.127Z,15.00
2018-09-22T02:02:10.641Z,14.90
2018-09-22T02:04:39.171Z,14.90
2018-09-22T02:07:07.654Z,14.80
2018-09-22T02:09:36.131Z,14.70
2018-09-22T02:12:04.710Z,14.60
2018-09-22T02:14:33.201Z,14.40
2018-09-22T02:17:01.714Z,14.30
2018-09-22T02:19:30.258Z,14.30
2018-09-22T02:21:58.729Z,14.20
2018-09-22T02:24:27.254Z,14.10
2018-09-22T02:26:55.715Z,14.10
2018-09-22T02:29:24.323Z,14.10
2018-09-22T02:31:52.869Z,14.10
2018-09-22T02:34:21.430Z,14.00
2018-09-22T02:36:50.073Z,14.00
2018-09-22T02:39:18.561Z,14.10
2018-09-22T02:41:47.130Z,14.00
2018-09-22T02:44:15.575Z,14.10
2018-09-22T02:46:44.121Z,14.00
2018-09-22T02:49:12.645Z,14.00
2018-09-22T02:51:41.163Z,14.10
2018-09-22T02:54:09.761Z,14.10
2018-09-22T02:56:38.342Z,14.20
2018-09-22T02:59:08.049Z,14.20
2018-09-22T03:01:36.581Z,14.30
2018-09-22T03:04:05.106Z,14.40
2018-09-22T03:06:33.589Z,14.40
2018-09-22T03:09:03.218Z,14.50
2018-09-22T03:11:31.790Z,14.50
2018-09-22T03:14:00.314Z,14.40
2018-09-22T03:16:28.847Z,14.30
2018-09-22T03:18:57.277Z,14.30
2018-09-22T03:21:25.777Z,14.40
2018-09-22T03:23:54.293Z,14.50
2018-09-22T03:26:22.836Z,14.50
2018-09-22T03:28:51.378Z,14.50
2018-09-22T03:31:20.851Z,14.50
2018-09-22T03:33:49.402Z,14.50
2018-09-22T03:36:17.918Z,14.50
2018-09-22T03:38:46.365Z,14.50
2018-09-22T03:41:14.874Z,14.60
2018-09-22T03:43:43.333Z,14.70
2018-09-22T03:46:11.853Z,14.60
2018-09-22T03:48:40.396Z,14.70
2018-09-22T03:51:08.918Z,14.70
2018-09-22T03:53:37.354Z,14.80
2018-09-22T03:56:05.892Z,14.80
2018-09-22T03:58:34.413Z,14.90
2018-09-22T04:01:02.945Z,14.90
2018-09-22T04:03:32.405Z,14.80
2018-09-22T04:06:00.910Z,14.90
2018-09-22T04:08:29.409Z,14.90
2018-09-22T04:10:57.854Z,14.90
2018-09-22T04:13:26.369Z,14.80
2018-09-22T04:15:54.801Z,14.90
2018-09-22T04:18:23.339Z,14.90
2018-09-22T04:20:51.771Z,14.90
2018-09-22T04:23:20.249Z,14.90
2018-09-22T04:25:48.885Z,15.00
2018-09-22T04:28:17.310Z,15.00
2018-09-22T04:30:45.838Z,15.10
2018-09-22T04:33:14.334Z,15.10
2018-09-22T04:35:42.812Z,15.10
2018-09-22T04:38:11.343Z,15.10
2018-09-22T04:40:39.821Z,15.00
2018-09-22T04:43:08.353Z,14.90
2018-09-22T04:45:36.785Z,14.70
2018-09-22T04:48:05.528Z,14.70
2018-09-22T04:50:34.028Z,14.60
2018-09-22T04:53:02.529Z,14.60
2018-09-22T04:55:31.026Z,14.60
2018-09-22T04:57:59.574Z,14.50
2018-09-22T05:00:28.130Z,14.50
2018-09-22T05:02:56.561Z,14.50
2018-09-22T05:05:25.115Z,14.50
2018-09-22T05:07:53.690Z,14.50
2018-09-22T05:10:22.247Z,14.50
2018-09-22T05:12:50.806Z,14.50
2018-09-22T05:15:19.353Z,14.40
2018-09-22T05:17:47.877Z,14.40
2018-09-22T05:20:16.354Z,14.40
2018-09-22T05:22:44.874Z,14.40
2018-09-22T05:25:13.370Z,14.40
2018-09-22T05:27:41.933Z,14.40
2018-09-22T05:30:11.430Z,14.40
2018-09-22T05:32:39.933Z,14.40
2018-09-22T05:35:09.405Z,14.40
2018-09-22T05:37:37.914Z,14.40
2018-09-22T05:40:06.934Z,14.40
2018-09-22T05:42:35.461Z,14.40
2018-09-22T05:45:04.017Z,14.40
2018-09-22T05:47:33.529Z,14.40
2018-09-22T05:50:02.046Z,14.40
2018-09-22T05:52:30.671Z,14.40
2018-09-22T05:54:59.202Z,14.40
2018-09-22T05:57:27.677Z,14.40
2018-09-22T05:59:56.186Z,14.30
2018-09-22T06:02:24.644Z,14.30
2018-09-22T06:04:53.155Z,14.40
2018-09-22T06:07:21.617Z,14.40
2018-09-22T06:09:50.109Z,14.40
2018-09-22T06:12:18.621Z,14.50
2018-09-22T06:14:48.086Z,14.40
2018-09-22T06:17:16.553Z,14.50
2018-09-22T06:19:45.066Z,14.50
2018-09-22T06:22:13.727Z,14.50
2018-09-22T06:24:42.225Z,14.50
2018-09-22T06:27:10.760Z,14.50
2018-09-22T06:29:39.328Z,14.50
2018-09-22T06:32:07.842Z,14.60
2018-09-22T06:34:36.364Z,14.60
2018-09-22T06:37:04.851Z,14.70
2018-09-22T06:39:33.442Z,14.70
2018-09-22T06:42:01.973Z,14.60
2018-09-22T06:44:30.498Z,14.70
2018-09-22T06:46:58.950Z,14.70
2018-09-22T06:49:27.472Z,14.70
2018-09-22T06:51:56.047Z,14.80
2018-09-22T06:54:24.530Z,14.80
2018-09-22T06:56:53.109Z,14.90
2018-09-22T06:59:21.561Z,15.00
2018-09-22T07:01:50.151Z,15.00
2018-09-22T07:04:18.671Z,15.10
2018-09-22T07:06:47.205Z,15.10
2018-09-22T07:09:15.669Z,15.20
2018-09-22T07:11:45.221Z,15.30
2018-09-22T07:14:13.661Z,15.40
2018-09-22T07:16:42.459Z,15.40
2018-09-22T07:19:11.077Z,15.50
2018-09-22T07:22:43.503Z,15.50
2018-09-22T07:25:12.040Z,15.60
2018-09-22T07:27:40.477Z,15.50
2018-09-22T07:30:09.117Z,15.60
2018-09-22T07:32:37.658Z,15.70
2018-09-22T07:35:06.229Z,15.70
2018-09-22T07:37:34.784Z,15.80
2018-09-22T07:40:03.353Z,15.80
2018-09-22T07:42:31.941Z,15.90
2018-09-22T07:45:00.489Z,16.00
2018-09-22T07:47:29.021Z,16.10
2018-09-22T07:49:57.669Z,16.10
2018-09-22T07:53:29.988Z,16.10
2018-09-22T07:55:59.970Z,16.10
2018-09-22T07:58:28.474Z,16.30
2018-09-22T08:00:57.919Z,16.40
2018-09-22T08:03:26.396Z,16.40
2018-09-22T08:05:54.821Z,16.50
2018-09-22T08:08:23.335Z,16.60
2018-09-22T08:10:51.829Z,16.70
2018-09-22T08:13:20.317Z,16.80
2018-09-22T08:15:48.765Z,16.80
2018-09-22T08:18:17.234Z,16.80
2018-09-22T08:20:45.681Z,16.80
2018-09-22T08:23:14.186Z,16.80
2018-09-22T08:25:42.650Z,16.90
2018-09-22T08:28:11.158Z,17.00
2018-09-22T08:30:39.605Z,16.90
2018-09-22T08:33:08.074Z,17.00
2018-09-22T08:35:36.614Z,17.00
2018-09-22T08:38:05.074Z,17.10
2018-09-22T08:40:33.553Z,17.10
2018-09-22T08:43:01.983Z,17.10
2018-09-22T08:45:30.413Z,17.20
2018-09-22T08:47:58.860Z,17.20
2018-09-22T08:50:27.329Z,17.30
2018-09-22T08:52:55.753Z,17.30
2018-09-22T08:55:24.229Z,17.30
2018-09-22T08:57:52.709Z,17.40
2018-09-22T09:00:21.213Z,17.50
2018-09-22T09:02:49.690Z,17.50
2018-09-22T09:05:18.205Z,17.60
2018-09-22T09:07:46.636Z,17.70
2018-09-22T09:10:15.114Z,17.80
2018-09-22T09:12:43.586Z,17.80
2018-09-22T09:15:12.018Z,17.70
2018-09-22T09:17:40.582Z,17.70
2018-09-22T09:20:09.040Z,17.70
2018-09-22T09:22:37.505Z,17.80
2018-09-22T09:25:06.046Z,17.90
2018-09-22T09:27:34.610Z,17.90
2018-09-22T09:30:03.054Z,18.00
2018-09-22T09:32:31.480Z,18.00
2018-09-22T09:34:59.946Z,18.10
2018-09-22T09:37:28.418Z,18.10
2018-09-22T09:39:56.905Z,18.10
2018-09-22T09:42:25.437Z,18.10
2018-09-22T09:44:53.949Z,18.00
2018-09-22T09:47:22.641Z,18.10
2018-09-22T09:49:51.113Z,18.10
2018-09-22T09:52:19.613Z,18.00
2018-09-22T09:54:48.105Z,18.00
2018-09-22T09:57:16.589Z,18.00
2018-09-22T09:59:46.066Z,17.90
2018-09-22T10:02:14.559Z,18.10
2018-09-22T10:04:44.065Z,18.10
2018-09-22T10:07:12.570Z,18.10
2018-09-22T10:09:41.133Z,18.20
2018-09-22T10:12:09.566Z,18.30
2018-09-22T10:14:38.217Z,18.30
2018-09-22T10:17:07.698Z,18.30
2018-09-22T10:19:36.182Z,18.40
2018-09-22T10:22:04.682Z,18.40
2018-09-22T10:24:33.334Z,18.50
2018-09-22T10:27:01.802Z,18.40
2018-09-22T10:29:30.285Z,18.40
2018-09-22T10:31:58.805Z,18.40
2018-09-22T10:34:27.361Z,18.40
2018-09-22T10:36:55.829Z,18.40
2018-09-22T10:39:24.357Z,18.50
2018-09-22T10:41:52.930Z,18.50
2018-09-22T10:44:21.365Z,18.60
2018-09-22T10:46:49.898Z,18.70
2018-09-22T10:49:18.433Z,18.80
2018-09-22T10:51:46.949Z,18.90
2018-09-22T10:54:15.429Z,19.00
2018-09-22T10:56:43.885Z,19.10
2018-09-22T10:59:12.467Z,19.00
2018-09-22T11:01:41.145Z,19.00
2018-09-22T11:04:10.719Z,19.00
2018-09-22T11:06:39.233Z,19.00
2018-09-22T11:09:08.791Z,18.90
2018-09-22T11:11:37.274Z,18.90
2018-09-22T11:14:05.869Z,18.90
2018-09-22T11:16:34.434Z,18.80
2018-09-22T11:19:02.922Z,18.80
2018-09-22T11:21:31.505Z,18.90
2018-09-22T11:24:00.058Z,19.00
2018-09-22T11:26:28.583Z,19.00
2018-09-22T11:28:58.159Z,18.90
2018-09-22T11:31:26.670Z,19.00
2018-09-22T11:33:55.191Z,19.10
2018-09-22T11:36:24.085Z,19.10
2018-09-22T11:38:52.597Z,19.10
2018-09-22T11:41:21.062Z,19.10
2018-09-22T11:43:49.597Z,19.20
2018-09-22T11:46:18.216Z,19.20
2018-09-22T11:48:46.840Z,19.20
2018-09-22T11:51:15.297Z,19.30
2018-09-22T11:53:44.829Z,19.40
2018-09-22T11:56:13.268Z,19.30
2018-09-22T11:58:41.816Z,19.40
2018-09-22T12:01:10.396Z,19.40
2018-09-22T12:03:38.982Z,19.40
2018-09-22T12:06:07.678Z,19.50
2018-09-22T12:08:36.197Z,19.40
2018-09-22T12:11:04.709Z,19.50
2018-09-22T12:13:33.257Z,19.60
2018-09-22T12:16:01.746Z,19.70
2018-09-22T12:18:30.256Z,19.90
2018-09-22T12:20:58.759Z,20.00
2018-09-22T12:23:27.585Z,20.10
2018-09-22T12:25:56.116Z,20.20
2018-09-22T12:28:24.563Z,20.30
2018-09-22T12:30:53.100Z,20.40
2018-09-22T12:33:21.542Z,20.40
2018-09-22T12:35:50.057Z,20.50
2018-09-22T12:38:18.589Z,20.60
2018-09-22T12:40:47.098Z,20.60
2018-09-22T12:43:15.541Z,20.80
2018-09-22T12:45:44.049Z,20.90
2018-09-22T12:48:12.540Z,21.20
2018-09-22T12:50:41.105Z,21.20
2018-09-22T12:53:09.607Z,21.30
2018-09-22T12:55:38.041Z,21.30
2018-09-22T12:58:06.769Z,21.50
2018-09-22T13:00:35.530Z,21.50
2018-09-22T13:03:04.071Z,21.60
2018-09-22T13:05:32.528Z,21.70
2018-09-22T13:08:01.022Z,21.90
2018-09-22T13:10:29.565Z,21.90
2018-09-22T13:12:58.129Z,22.00
2018-09-22T13:15:26.666Z,22.10
2018-09-22T13:17:55.141Z,22.00
2018-09-22T13:20:23.658Z,22.10
2018-09-22T13:22:52.380Z,22.20
2018-09-22T13:25:20.852Z,22.10
2018-09-22T13:27:49.393Z,21.90
2018-09-22T13:30:17.949Z,21.80
2018-09-22T13:32:46.442Z,21.70
2018-09-22T13:35:14.981Z,21.90
2018-09-22T13:37:43.494Z,22.00
2018-09-22T13:40:11.965Z,22.20
2018-09-22T13:42:42.019Z,22.30
2018-09-22T13:45:10.576Z,22.40
2018-09-22T13:47:40.197Z,22.50
2018-09-22T13:50:09.669Z,22.50
2018-09-22T13:52:38.190Z,22.50
2018-09-22T13:55:07.018Z,22.50
2018-09-22T13:57:36.537Z,22.30
2018-09-22T14:00:05.533Z,22.10
2018-09-22T14:02:34.040Z,22.20
2018-09-22T14:05:02.537Z,22.20
2018-09-22T14:07:31.018Z,22.30
2018-09-22T14:09:59.612Z,22.50
2018-09-22T14:12:28.047Z,22.60
2018-09-22T14:14:56.565Z,22.90
2018-09-22T14:17:25.018Z,23.00
2018-09-22T14:19:53.514Z,23.40
2018-09-22T14:22:23.289Z,24.30
2018-09-22T14:24:51.845Z,25.40
2018-09-22T14:27:20.395Z,26.60
2018-09-22T14:29:49.904Z,27.30
2018-09-22T14:32:18.345Z,27.70
2018-09-22T14:34:47.877Z,27.60
2018-09-22T14:37:16.373Z,27.10
2018-09-22T14:39:44.956Z,26.50
2018-09-22T14:42:13.405Z,25.90
2018-09-22T14:44:41.926Z,25.30
2018-09-22T14:47:10.413Z,24.90
2018-09-22T14:49:38.941Z,24.50
2018-09-22T14:52:07.529Z,24.20
2018-09-22T14:54:36.110Z,23.90
2018-09-22T14:57:04.613Z,23.60
2018-09-22T14:59:33.110Z,23.20
2018-09-22T15:02:01.558Z,23.00
2018-09-22T15:04:30.073Z,22.80
2018-09-22T15:06:58.537Z,22.60
2018-09-22T15:09:27.045Z,22.50
2018-09-22T15:11:55.492Z,22.30
2018-09-22T15:14:24.037Z,22.20
2018-09-22T15:16:52.560Z,22.10
2018-09-22T15:19:21.117Z,22.10
2018-09-22T15:21:49.657Z,22.10
2018-09-22T15:24:18.094Z,22.10
2018-09-22T15:26:46.681Z,21.90
2018-09-22T15:29:15.205Z,21.60
2018-09-22T15:31:43.681Z,21.40
2018-09-22T15:34:12.277Z,21.20
2018-09-22T15:36:40.981Z,21.00
2018-09-22T15:39:09.874Z,20.80
2018-09-22T15:41:39.371Z,20.60
2018-09-22T15:44:07.885Z,20.40
2018-09-22T15:46:36.372Z,20.30
2018-09-22T15:49:04.897Z,20.10
2018-09-22T15:51:33.341Z,20.00
2018-09-22T15:54:01.894Z,19.80
2018-09-22T15:56:30.406Z,19.80
2018-09-22T15:58:58.913Z,19.50
2018-09-22T16:01:27.409Z,19.40
2018-09-22T16:03:55.945Z,19.30
2018-09-22T16:06:24.465Z,19.20
2018-09-22T16:08:53.009Z,19.10
2018-09-22T16:11:21.542Z,18.90
2018-09-22T16:13:49.969Z,18.90
2018-09-22T16:16:18.580Z,18.80
2018-09-22T16:18:47.353Z,18.70
2018-09-22T16:21:15.838Z,18.60
2018-09-22T16:23:44.351Z,18.50
2018-09-22T16:26:12.865Z,18.40
2018-09-22T16:28:41.374Z,18.30
2018-09-22T16:31:09.928Z,18.30
2018-09-22T16:33:38.498Z,18.20
2018-09-22T16:36:07.058Z,18.10
2018-09-22T16:38:35.505Z,18.00
2018-09-22T16:41:04.041Z,18.00
2018-09-22T16:43:32.613Z,17.90
2018-09-22T16:46:01.085Z,17.80
2018-09-22T16:48:29.653Z,17.70
2018-09-22T16:50:58.182Z,17.80
2018-09-22T16:53:26.762Z,17.70
2018-09-22T16:55:55.310Z,17.60
2018-09-22T16:58:23.844Z,17.50
2018-09-22T17:00:52.390Z,17.40
2018-09-22T17:03:20.854Z,17.40
2018-09-22T17:05:49.362Z,17.30
2018-09-22T17:08:17.927Z,17.30
2018-09-22T17:10:46.415Z,17.20
2018-09-22T17:13:14.864Z,17.20
2018-09-22T17:15:43.386Z,17.20
2018-09-22T17:18:11.921Z,17.10
2018-09-22T17:20:40.417Z,17.00
2018-09-22T17:23:08.925Z,16.90
2018-09-22T17:25:37.366Z,16.90
2018-09-22T17:28:06.390Z,16.90
2018-09-22T17:30:34.866Z,16.80
2018-09-22T17:33:03.395Z,16.80
2018-09-22T17:35:32.929Z,16.70
2018-09-22T17:38:01.405Z,16.80
2018-09-22T17:40:29.982Z,16.70
2018-09-22T17:42:58.516Z,16.80
2018-09-22T17:45:27.023Z,16.70
2018-09-22T17:47:55.591Z,16.70
2018-09-22T17:50:25.089Z,16.60
2018-09-22T17:52:53.692Z,16.60
2018-09-22T17:55:22.225Z,16.60
2018-09-22T17:57:50.705Z,16.50
2018-09-22T18:00:19.430Z,16.40
2018-09-22T18:02:48.073Z,16.40
2018-09-22T18:05:16.617Z,16.40
2018-09-22T18:07:45.133Z,16.40
2018-09-22T18:10:13.629Z,16.50
2018-09-22T18:12:42.097Z,16.40
2018-09-22T18:15:10.742Z,16.40
2018-09-22T18:17:39.269Z,16.40
2018-09-22T18:20:07.864Z,16.40
2018-09-22T18:22:36.345Z,16.40
2018-09-22T18:25:05.216Z,16.40
2018-09-22T18:27:33.805Z,16.40
2018-09-22T18:30:02.297Z,16.40
2018-09-22T18:32:30.749Z,16.40
2018-09-22T18:34:59.286Z,16.30
2018-09-22T18:37:28.761Z,16.20
2018-09-22T18:39:57.385Z,16.30
2018-09-22T18:42:25.922Z,16.20
2018-09-22T18:44:54.442Z,16.10
2018-09-22T18:47:22.999Z,16.10
2018-09-22T18:49:51.498Z,16.10
2018-09-22T18:52:19.949Z,16.00
2018-09-22T18:54:48.457Z,16.00
2018-09-22T18:57:17.021Z,15.90
2018-09-22T18:59:45.541Z,16.00
2018-09-22T19:02:14.433Z,16.00
2018-09-22T19:04:43.009Z,15.90
2018-09-22T19:07:11.450Z,16.00
2018-09-22T19:09:39.973Z,16.00
2018-09-22T19:12:08.413Z,15.90
2018-09-22T19:14:42.393Z,16.00
2018-09-22T19:17:21.678Z,16.00
2018-09-22T19:19:58.122Z,16.10
2018-09-22T19:22:30.654Z,16.00
2018-09-22T19:25:02.293Z,16.00
2018-09-22T19:27:37.556Z,16.00
2018-09-22T19:30:16.530Z,15.90
2018-09-22T19:32:49.369Z,15.90
2018-09-22T19:35:24.741Z,15.90
2018-09-22T19:37:55.844Z,15.80
2018-09-22T19:40:33.802Z,15.80
2018-09-22T19:43:08.924Z,15.80
2018-09-22T19:45:41.993Z,15.80
2018-09-22T19:48:15.121Z,15.90
2018-09-22T19:50:47.181Z,15.90
2018-09-22T19:53:15.803Z,15.90
2018-09-22T19:55:44.250Z,16.00
2018-09-22T19:58:12.742Z,16.00
2018-09-22T20:00:41.246Z,16.00
2018-09-22T20:03:09.726Z,16.00
2018-09-22T20:05:38.169Z,15.90
2018-09-22T20:08:06.665Z,16.00
2018-09-22T20:10:35.182Z,16.00
2018-09-22T20:13:03.757Z,15.90
2018-09-22T20:15:32.225Z,16.00
2018-09-22T20:18:00.669Z,16.00
2018-09-22T20:20:29.256Z,15.90
2018-09-22T20:22:57.743Z,15.90
2018-09-22T20:25:26.266Z,15.90
2018-09-22T20:27:54.714Z,15.90
2018-09-22T20:30:23.309Z,15.90
2018-09-22T20:32:51.778Z,15.90
2018-09-22T20:35:20.314Z,15.90
2018-09-22T20:37:48.883Z,15.90
2018-09-22T20:40:17.418Z,15.90
2018-09-22T20:42:45.937Z,16.00
2018-09-22T20:45:14.423Z,16.00
2018-09-22T20:47:42.946Z,16.00
2018-09-22T20:50:11.532Z,16.10
2018-09-22T20:52:40.033Z,16.10
2018-09-22T20:55:08.578Z,16.10
2018-09-22T20:57:37.274Z,16.10
2018-09-22T21:00:07.073Z,16.10
2018-09-22T21:02:35.713Z,16.00
2018-09-22T21:05:04.428Z,15.90
2018-09-22T21:07:33.943Z,15.90
2018-09-22T21:10:02.546Z,15.80
2018-09-22T21:12:31.054Z,15.70
2018-09-22T21:15:00.709Z,15.70
2018-09-22T21:17:30.172Z,15.70
2018-09-22T21:19:58.717Z,15.60
2018-09-22T21:22:27.341Z,15.60
2018-09-22T21:24:55.858Z,15.60
2018-09-22T21:27:25.165Z,15.50
2018-09-22T21:29:53.761Z,15.60
2018-09-22T21:32:22.342Z,15.60
2018-09-22T21:34:51.114Z,15.60
2018-09-22T21:37:20.025Z,15.60
2018-09-22T21:39:48.550Z,15.60
2018-09-22T21:42:17.136Z,15.50
2018-09-22T21:44:45.606Z,15.60
2018-09-22T21:47:14.170Z,15.50
2018-09-22T21:49:42.702Z,15.50
2018-09-22T21:52:11.321Z,15.60
2018-09-22T21:54:39.893Z,15.60
2018-09-22T21:57:08.374Z,15.70
2018-09-22T21:59:36.883Z,15.80
2018-09-22T22:02:05.421Z,15.80
2018-09-22T22:04:34.953Z,15.80
2018-09-22T22:07:03.529Z,15.90
2018-09-22T22:09:31.975Z,16.00
2018-09-22T22:12:00.477Z,16.00
2018-09-22T22:14:29.104Z,16.00
2018-09-22T22:16:58.573Z,16.10
2018-09-22T22:19:27.211Z,16.10
2018-09-22T22:21:55.737Z,16.10
2018-09-22T22:24:24.251Z,16.00
2018-09-22T22:26:52.815Z,16.00
2018-09-22T22:29:21.305Z,16.00
2018-09-22T22:31:49.837Z,16.00
2018-09-22T22:34:18.343Z,16.00
2018-09-22T22:36:46.838Z,15.90
2018-09-22T22:39:15.339Z,15.90
2018-09-22T22:41:44.989Z,15.80
2018-09-22T22:44:13.563Z,15.80
2018-09-22T22:46:42.058Z,15.80
2018-09-22T22:49:10.574Z,15.70
2018-09-22T22:51:39.018Z,15.70
2018-09-22T22:54:07.566Z,15.70
2018-09-22T22:56:37.111Z,15.60
2018-09-22T22:59:06.717Z,15.60
2018-09-22T23:01:35.186Z,15.40
2018-09-22T23:04:03.697Z,15.40
2018-09-22T23:06:32.300Z,15.40
2018-09-22T23:09:01.649Z,15.40
2018-09-22T23:11:30.173Z,15.40
2018-09-22T23:13:58.597Z,15.50
2018-09-22T23:16:27.137Z,15.50
2018-09-22T23:18:55.586Z,15.50
2018-09-22T23:21:24.082Z,15.50
2018-09-22T23:23:52.590Z,15.50
2018-09-22T23:26:22.097Z,15.50
2018-09-22T23:28:50.551Z,15.50
2018-09-22T23:31:19.073Z,15.50
2018-09-22T23:33:47.613Z,15.50
2018-09-22T23:36:16.086Z,15.60
2018-09-22T23:38:44.609Z,15.60
2018-09-22T23:41:13.094Z,15.60
2018-09-22T23:43:41.598Z,15.60
2018-09-22T23:46:10.107Z,15.70
2018-09-22T23:48:38.585Z,15.70
2018-09-22T23:51:07.130Z,15.70
2018-09-22T23:53:35.700Z,15.70
2018-09-22T23:56:04.167Z,15.70
2018-09-22T23:58:32.692Z,15.70
